createdAt,value
2019-04-28T00:02:20.582Z,7.00
2019-04-28T00:04:48.493Z,6.90
2019-04-28T00:07:15.243Z,7.00
2019-04-28T00:09:41.924Z,7.00
2019-04-28T00:12:08.696Z,6.90
2019-04-28T00:14:35.443Z,6.80
2019-04-28T00:17:02.315Z,6.80
2019-04-28T00:19:30.841Z,6.80
2019-04-28T00:22:01.044Z,6.70
2019-04-28T00:24:47.145Z,6.70
2019-04-28T00:27:13.989Z,6.60
2019-04-28T00:29:45.589Z,6.70
2019-04-28T00:32:11.040Z,6.80
2019-04-28T00:34:38.027Z,6.80
2019-04-28T00:37:06.683Z,6.90
2019-04-28T00:39:33.467Z,6.90
2019-04-28T00:42:03.101Z,7.00
2019-04-28T00:44:28.970Z,7.10
2019-04-28T00:46:55.980Z,7.10
2019-04-28T00:49:41.953Z,7.10
2019-04-28T00:52:10.842Z,7.20
2019-04-28T00:54:37.421Z,7.30
2019-04-28T00:57:04.091Z,7.30
2019-04-28T00:59:31.600Z,7.40
2019-04-28T01:02:01.202Z,7.40
2019-04-28T01:04:27.993Z,7.30
2019-04-28T01:06:54.813Z,7.20
2019-04-28T01:09:21.896Z,7.20
2019-04-28T01:11:48.965Z,7.30
2019-04-28T01:14:15.647Z,7.40
2019-04-28T01:16:44.220Z,7.50
2019-04-28T01:19:12.862Z,7.40
2019-04-28T01:21:57.150Z,7.50
2019-04-28T01:24:23.927Z,7.50
2019-04-28T01:26:52.571Z,7.60
2019-04-28T01:29:19.536Z,7.60
2019-04-28T01:32:04.255Z,7.60
2019-04-28T01:34:31.125Z,7.40
2019-04-28T01:36:59.716Z,7.30
2019-04-28T01:39:26.407Z,7.30
2019-04-28T01:41:53.190Z,7.10
2019-04-28T01:44:20.002Z,7.10
2019-04-28T01:46:46.614Z,7.10
2019-04-28T01:49:13.387Z,7.10
2019-04-28T01:51:41.591Z,7.00
2019-04-28T01:54:09.822Z,7.10
2019-04-28T01:56:36.976Z,7.00
2019-04-28T01:59:03.852Z,6.80
2019-04-28T02:01:30.619Z,6.60
2019-04-28T02:03:57.388Z,6.50
2019-04-28T02:06:24.140Z,6.50
2019-04-28T02:08:51.630Z,6.40
2019-04-28T02:11:19.817Z,6.40
2019-04-28T02:13:46.715Z,6.40
2019-04-28T02:16:13.586Z,6.40
2019-04-28T02:18:40.379Z,6.40
2019-04-28T02:21:09.677Z,6.40
2019-04-28T02:23:37.107Z,6.40
2019-04-28T02:26:03.868Z,6.30
2019-04-28T02:28:30.747Z,6.30
2019-04-28T02:30:57.436Z,6.20
2019-04-28T02:33:24.106Z,6.20
2019-04-28T02:35:51.199Z,6.10
2019-04-28T02:38:18.059Z,6.10
2019-04-28T02:40:44.784Z,6.00
2019-04-28T02:43:11.703Z,5.90
2019-04-28T02:45:41.309Z,6.10
2019-04-28T02:48:11.101Z,6.10
2019-04-28T02:50:41.105Z,6.10
2019-04-28T02:53:16.242Z,6.10
2019-04-28T02:55:43.047Z,6.10
2019-04-28T02:58:10.721Z,6.10
2019-04-28T03:00:41.005Z,6.10
2019-04-28T03:03:06.933Z,6.20
2019-04-28T03:05:33.833Z,6.00
2019-04-28T03:08:01.232Z,5.90
2019-04-28T03:10:31.154Z,6.00
2019-04-28T03:13:00.805Z,5.90
2019-04-28T03:15:26.692Z,5.90
2019-04-28T03:17:53.520Z,5.90
2019-04-28T03:20:21.144Z,5.90
2019-04-28T03:22:51.092Z,6.00
2019-04-28T03:25:20.438Z,5.80
2019-04-28T03:27:51.974Z,5.90
2019-04-28T03:30:35.502Z,5.90
2019-04-28T03:33:10.713Z,6.30
2019-04-28T03:35:32.930Z,6.30
2019-04-28T03:38:01.163Z,6.20
2019-04-28T03:40:33.397Z,6.20
2019-04-28T03:42:59.382Z,6.30
2019-04-28T03:45:27.165Z,6.50
2019-04-28T03:47:53.930Z,6.40
2019-04-28T03:50:20.696Z,6.40
2019-04-28T03:52:51.006Z,6.40
2019-04-28T03:55:16.023Z,6.60
2019-04-28T03:57:42.917Z,6.50
2019-04-28T04:00:10.918Z,6.50
2019-04-28T04:02:40.890Z,6.50
2019-04-28T04:05:06.444Z,6.60
2019-04-28T04:07:33.194Z,6.40
2019-04-28T04:10:14.223Z,6.80
2019-04-28T04:13:00.879Z,7.00
2019-04-28T04:15:49.429Z,7.30
2019-04-28T04:18:21.106Z,7.70
2019-04-28T04:20:50.958Z,7.90
2019-04-28T04:23:16.946Z,8.30
2019-04-28T04:25:43.711Z,8.60
2019-04-28T04:28:11.617Z,8.80
2019-04-28T04:30:40.618Z,8.70
2019-04-28T04:33:07.055Z,9.00
2019-04-28T04:35:33.931Z,9.20
2019-04-28T04:38:00.835Z,9.10
2019-04-28T04:40:27.657Z,9.20
2019-04-28T04:42:54.552Z,9.30
2019-04-28T04:45:21.422Z,9.50
2019-04-28T04:47:50.391Z,9.50
2019-04-28T04:50:16.724Z,9.70
2019-04-28T04:52:43.483Z,9.90
2019-04-28T04:55:11.081Z,10.00
2019-04-28T04:57:37.920Z,10.10
2019-04-28T05:00:09.907Z,10.00
2019-04-28T05:02:51.035Z,10.00
2019-04-28T05:05:14.628Z,9.90
2019-04-28T05:07:41.394Z,9.80
2019-04-28T05:10:08.174Z,9.90
2019-04-28T05:12:34.835Z,9.70
2019-04-28T05:15:01.590Z,9.60
2019-04-28T05:17:30.091Z,9.60
2019-04-28T05:19:57.036Z,9.70
2019-04-28T05:22:25.576Z,9.80
2019-04-28T05:24:54.508Z,10.00
2019-04-28T05:27:22.172Z,10.00
2019-04-28T05:29:51.281Z,10.40
2019-04-28T05:32:18.159Z,10.50
2019-04-28T05:34:46.823Z,10.60
2019-04-28T05:37:13.566Z,10.70
2019-04-28T05:39:40.613Z,10.60
2019-04-28T05:42:07.318Z,10.60
2019-04-28T05:44:33.982Z,10.60
2019-04-28T05:47:00.768Z,10.80
2019-04-28T05:49:45.944Z,11.00
2019-04-28T05:52:31.274Z,11.20
2019-04-28T05:55:10.139Z,11.30
2019-04-28T05:57:39.800Z,11.30
2019-04-28T06:00:10.813Z,11.60
2019-04-28T06:02:40.869Z,11.60
2019-04-28T06:05:10.069Z,11.50
2019-04-28T06:07:44.559Z,11.60
2019-04-28T06:10:12.491Z,11.70
2019-04-28T06:12:40.525Z,11.80
2019-04-28T06:15:08.064Z,11.80
2019-04-28T06:17:34.920Z,11.80
2019-04-28T06:20:02.579Z,11.80
2019-04-28T06:22:29.348Z,11.80
2019-04-28T06:24:56.215Z,11.90
2019-04-28T06:27:22.976Z,12.10
2019-04-28T06:29:49.760Z,12.20
2019-04-28T06:32:16.561Z,12.20
2019-04-28T06:34:43.480Z,12.30
2019-04-28T06:37:10.268Z,12.20
2019-04-28T06:39:37.237Z,12.20
2019-04-28T06:42:05.788Z,12.20
2019-04-28T06:44:32.570Z,12.30
2019-04-28T06:47:01.145Z,12.40
2019-04-28T06:49:27.812Z,12.50
2019-04-28T06:51:54.520Z,12.60
2019-04-28T06:54:21.347Z,12.60
2019-04-28T06:56:50.085Z,12.70
2019-04-28T06:59:16.587Z,12.80
2019-04-28T07:01:43.356Z,12.60
2019-04-28T07:04:10.125Z,12.50
2019-04-28T07:06:37.021Z,12.50
2019-04-28T07:09:05.267Z,12.60
2019-04-28T07:11:32.333Z,12.60
2019-04-28T07:13:59.110Z,12.70
2019-04-28T07:16:25.977Z,12.70
2019-04-28T07:18:52.741Z,12.70
2019-04-28T07:21:33.768Z,12.70
2019-04-28T07:24:00.382Z,12.80
2019-04-28T07:26:27.229Z,12.90
2019-04-28T07:28:54.043Z,13.10
2019-04-28T07:31:22.646Z,13.40
2019-04-28T07:33:49.408Z,13.40
2019-04-28T07:36:16.211Z,13.50
2019-04-28T07:38:43.148Z,13.60
2019-04-28T07:41:09.830Z,13.80
2019-04-28T07:43:36.730Z,14.00
2019-04-28T07:46:03.599Z,14.30
2019-04-28T07:48:30.343Z,14.20
2019-04-28T07:50:57.149Z,14.20
2019-04-28T07:53:35.055Z,14.10
2019-04-28T07:56:01.825Z,14.00
2019-04-28T07:58:28.610Z,14.10
2019-04-28T08:00:55.491Z,14.20
2019-04-28T08:03:22.267Z,14.20
2019-04-28T08:05:49.027Z,14.30
2019-04-28T08:08:15.684Z,14.30
2019-04-28T08:10:42.580Z,14.40
2019-04-28T08:13:09.334Z,14.10
2019-04-28T08:15:36.041Z,14.00
2019-04-28T08:18:03.020Z,14.00
2019-04-28T08:20:29.768Z,13.90
2019-04-28T08:22:56.433Z,13.80
2019-04-28T08:25:23.296Z,13.90
2019-04-28T08:27:50.160Z,13.90
2019-04-28T08:30:17.075Z,13.70
2019-04-28T08:32:51.495Z,13.60
2019-04-28T08:35:18.395Z,13.70
2019-04-28T08:37:45.390Z,13.70
2019-04-28T08:40:12.325Z,13.80
2019-04-28T08:42:39.191Z,13.90
2019-04-28T08:45:06.751Z,14.10
2019-04-28T08:47:33.600Z,14.30
2019-04-28T08:50:00.436Z,14.40
2019-04-28T08:52:27.206Z,14.90
2019-04-28T08:54:55.810Z,15.20
2019-04-28T08:57:22.520Z,15.20
2019-04-28T08:59:49.264Z,15.30
2019-04-28T09:02:16.158Z,15.30
2019-04-28T09:04:43.921Z,15.50
2019-04-28T09:07:10.681Z,15.80
2019-04-28T09:09:37.532Z,16.10
2019-04-28T09:12:04.210Z,16.30
2019-04-28T09:14:32.093Z,16.50
2019-04-28T09:16:58.779Z,16.90
2019-04-28T09:19:25.709Z,17.30
2019-04-28T09:21:52.666Z,17.80
2019-04-28T09:24:19.468Z,18.10
2019-04-28T09:26:46.248Z,18.10
2019-04-28T09:29:13.136Z,18.10
2019-04-28T09:31:39.971Z,18.20
2019-04-28T09:34:06.954Z,18.50
2019-04-28T09:36:33.876Z,18.60
2019-04-28T09:39:00.892Z,18.90
2019-04-28T09:41:28.564Z,18.50
2019-04-28T09:44:05.374Z,18.10
2019-04-28T09:46:40.011Z,18.10
2019-04-28T09:49:06.677Z,18.20
2019-04-28T09:51:33.440Z,18.10
2019-04-28T09:54:00.489Z,18.00
2019-04-28T09:56:27.312Z,17.90
2019-04-28T09:58:53.973Z,17.70
2019-04-28T10:01:21.349Z,17.40
2019-04-28T10:03:48.143Z,17.20
2019-04-28T10:06:14.910Z,17.20
2019-04-28T10:08:41.802Z,17.30
2019-04-28T10:11:08.557Z,17.40
2019-04-28T10:13:35.338Z,17.30
2019-04-28T10:16:02.184Z,17.00
2019-04-28T10:18:29.010Z,17.10
2019-04-28T10:20:56.943Z,16.80
2019-04-28T10:23:23.774Z,16.50
2019-04-28T10:25:50.643Z,16.40
2019-04-28T10:28:17.386Z,16.30
2019-04-28T10:30:44.333Z,16.10
2019-04-28T10:33:11.233Z,16.10
2019-04-28T10:35:38.012Z,16.00
2019-04-28T10:38:04.795Z,16.10
2019-04-28T10:40:35.235Z,16.00
2019-04-28T10:43:02.054Z,16.20
2019-04-28T10:45:30.764Z,16.40
2019-04-28T10:47:57.518Z,16.70
2019-04-28T10:50:24.306Z,16.90
2019-04-28T10:52:52.618Z,16.90
2019-04-28T10:55:19.467Z,16.40
2019-04-28T10:57:46.280Z,16.30
2019-04-28T11:00:14.140Z,16.20
2019-04-28T11:02:42.316Z,16.20
2019-04-28T11:05:11.043Z,16.30
2019-04-28T11:07:37.842Z,16.40
2019-04-28T11:10:14.683Z,16.70
2019-04-28T11:12:41.627Z,16.50
2019-04-28T11:15:13.719Z,16.50
2019-04-28T11:17:40.601Z,16.40
2019-04-28T11:20:07.887Z,16.30
2019-04-28T11:22:35.613Z,16.30
2019-04-28T11:25:03.899Z,16.30
2019-04-28T11:27:30.747Z,16.30
2019-04-28T11:29:57.614Z,16.50
2019-04-28T11:32:24.456Z,16.80
2019-04-28T11:34:55.967Z,16.80
2019-04-28T11:37:22.853Z,17.30
2019-04-28T11:39:50.060Z,17.40
2019-04-28T11:42:18.711Z,18.00
2019-04-28T11:44:45.629Z,18.60
2019-04-28T11:47:17.053Z,18.80
2019-04-28T11:49:43.793Z,19.00
2019-04-28T11:52:10.649Z,19.10
2019-04-28T11:54:37.438Z,19.00
2019-04-28T11:57:04.329Z,18.90
2019-04-28T11:59:31.100Z,18.70
2019-04-28T12:01:58.109Z,18.70
2019-04-28T12:04:24.769Z,18.80
2019-04-28T12:06:55.119Z,18.60
2019-04-28T12:09:23.724Z,18.70
2019-04-28T12:11:52.336Z,18.40
2019-04-28T12:14:27.156Z,18.30
2019-04-28T12:16:55.606Z,19.00
2019-04-28T12:19:24.303Z,19.10
2019-04-28T12:21:51.051Z,19.10
2019-04-28T12:24:17.954Z,18.70
2019-04-28T12:26:44.607Z,19.30
2019-04-28T12:29:11.403Z,19.00
2019-04-28T12:31:38.167Z,18.70
2019-04-28T12:34:05.064Z,18.90
2019-04-28T12:36:31.669Z,18.70
2019-04-28T12:38:58.443Z,18.80
2019-04-28T12:41:25.217Z,19.50
2019-04-28T12:43:51.974Z,20.20
2019-04-28T12:46:18.779Z,20.20
2019-04-28T12:48:45.679Z,20.10
2019-04-28T12:51:12.563Z,20.20
2019-04-28T12:53:39.402Z,19.90
2019-04-28T12:56:07.553Z,19.50
2019-04-28T12:58:34.419Z,19.30
2019-04-28T13:01:18.010Z,19.10
2019-04-28T13:03:46.743Z,18.80
2019-04-28T13:06:15.430Z,18.50
2019-04-28T13:08:42.252Z,18.60
2019-04-28T13:11:09.096Z,19.30
2019-04-28T13:13:35.852Z,19.70
2019-04-28T13:16:02.778Z,20.00
2019-04-28T13:18:29.556Z,20.50
2019-04-28T13:20:58.958Z,19.80
2019-04-28T13:23:25.003Z,19.80
2019-04-28T13:25:51.752Z,19.50
2019-04-28T13:28:18.445Z,19.40
2019-04-28T13:30:45.230Z,19.00
2019-04-28T13:33:12.116Z,19.30
2019-04-28T13:35:39.094Z,19.60
2019-04-28T13:38:06.112Z,19.40
2019-04-28T13:40:38.090Z,19.60
2019-04-28T13:43:05.244Z,19.80
2019-04-28T13:45:32.134Z,19.60
2019-04-28T13:47:58.975Z,19.20
2019-04-28T13:50:27.728Z,19.20
2019-04-28T13:52:54.480Z,18.90
2019-04-28T13:55:25.712Z,19.10
2019-04-28T13:57:52.465Z,19.10
2019-04-28T14:00:36.744Z,19.40
2019-04-28T14:04:48.557Z,19.50
2019-04-28T14:06:27.708Z,19.80
2019-04-28T14:12:16.379Z,19.80
2019-04-28T14:14:43.232Z,19.60
2019-04-28T14:17:10.009Z,19.30
2019-04-28T14:22:49.268Z,18.50
2019-04-28T14:26:04.616Z,18.50
2019-04-28T14:28:32.734Z,18.60
2019-04-28T14:30:59.552Z,18.80
2019-04-28T14:33:26.200Z,19.10
2019-04-28T14:35:53.027Z,19.20
2019-04-28T14:38:19.829Z,19.10
2019-04-28T14:40:46.763Z,19.00
2019-04-28T14:43:13.843Z,18.90
2019-04-28T14:45:40.805Z,18.90
2019-04-28T14:48:07.641Z,18.90
2019-04-28T14:50:34.375Z,18.70
2019-04-28T14:53:01.144Z,18.60
2019-04-28T14:55:27.944Z,18.50
2019-04-28T14:57:54.880Z,18.50
2019-04-28T15:00:29.691Z,18.00
2019-04-28T15:02:58.413Z,17.90
2019-04-28T15:05:44.144Z,17.90
2019-04-28T15:08:12.671Z,17.90
2019-04-28T15:10:46.837Z,17.60
2019-04-28T15:13:13.908Z,17.50
2019-04-28T15:15:40.669Z,17.60
2019-04-28T15:18:07.449Z,17.70
2019-04-28T15:20:35.353Z,17.70
2019-04-28T15:23:02.188Z,17.80
2019-04-28T15:25:28.970Z,17.80
2019-04-28T15:27:58.553Z,17.90
2019-04-28T15:30:26.300Z,17.90
2019-04-28T15:32:53.139Z,17.70
2019-04-28T15:35:19.940Z,17.60
2019-04-28T15:37:49.369Z,17.40
2019-04-28T15:40:16.192Z,17.20
2019-04-28T15:42:42.973Z,17.30
2019-04-28T15:45:11.655Z,17.30
2019-04-28T15:47:38.320Z,17.00
2019-04-28T15:50:05.420Z,16.70
2019-04-28T15:52:32.238Z,16.40
2019-04-28T15:54:58.971Z,16.30
2019-04-28T15:57:25.770Z,16.20
2019-04-28T15:59:52.528Z,16.30
2019-04-28T16:02:19.284Z,16.10
2019-04-28T16:04:46.223Z,16.10
2019-04-28T16:07:24.261Z,16.00
2019-04-28T16:09:41.515Z,15.90
2019-04-28T16:12:08.232Z,15.80
2019-04-28T16:14:35.030Z,15.70
2019-04-28T16:17:02.048Z,15.70
2019-04-28T16:19:28.916Z,15.60
2019-04-28T16:21:55.704Z,15.60
2019-04-28T16:24:25.421Z,15.50
2019-04-28T16:26:52.224Z,15.50
2019-04-28T16:29:18.998Z,15.50
2019-04-28T16:31:45.885Z,15.40
2019-04-28T16:34:12.565Z,15.30
2019-04-28T16:36:39.311Z,15.30
2019-04-28T16:39:06.475Z,15.10
2019-04-28T16:41:35.199Z,15.00
2019-04-28T16:44:02.607Z,15.00
2019-04-28T16:46:29.376Z,14.90
2019-04-28T16:48:57.416Z,14.90
2019-04-28T16:51:24.065Z,14.90
2019-04-28T16:53:50.751Z,14.80
2019-04-28T16:56:35.790Z,14.80
2019-04-28T16:59:04.765Z,14.70
2019-04-28T17:01:36.248Z,14.60
2019-04-28T17:04:03.428Z,14.60
2019-04-28T17:06:30.279Z,14.60
2019-04-28T17:08:57.054Z,14.50
2019-04-28T17:11:23.867Z,14.40
2019-04-28T17:13:50.622Z,14.40
2019-04-28T17:16:17.542Z,14.30
2019-04-28T17:18:44.349Z,14.20
2019-04-28T17:21:11.079Z,14.10
2019-04-28T17:23:37.840Z,14.00
2019-04-28T17:26:04.805Z,13.90
2019-04-28T17:28:31.577Z,13.90
2019-04-28T17:30:58.362Z,13.90
2019-04-28T17:33:25.147Z,13.80
2019-04-28T17:35:52.083Z,13.70
2019-04-28T17:38:19.019Z,13.70
2019-04-28T17:40:47.814Z,13.60
2019-04-28T17:43:16.471Z,13.60
2019-04-28T17:45:43.251Z,13.60
2019-04-28T17:48:14.739Z,13.60
2019-04-28T17:50:41.727Z,13.50
2019-04-28T17:53:08.602Z,13.40
2019-04-28T17:55:36.749Z,13.40
2019-04-28T17:58:05.240Z,13.30
2019-04-28T18:00:54.930Z,13.30
2019-04-28T18:03:23.697Z,13.20
2019-04-28T18:06:17.662Z,13.20
2019-04-28T18:08:37.535Z,13.10
2019-04-28T18:11:04.523Z,13.10
2019-04-28T18:13:31.293Z,13.00
2019-04-28T18:16:03.021Z,13.00
2019-04-28T18:18:34.369Z,13.00
2019-04-28T18:21:02.213Z,12.90
2019-04-28T18:23:29.115Z,12.80
2019-04-28T18:25:58.049Z,12.70
2019-04-28T18:28:24.831Z,12.80
2019-04-28T18:30:53.511Z,12.70
2019-04-28T18:33:28.236Z,12.70
2019-04-28T18:35:56.965Z,12.60
2019-04-28T18:38:34.710Z,12.60
2019-04-28T18:41:02.877Z,12.60
2019-04-28T18:43:47.051Z,12.50
2019-04-28T18:46:16.568Z,12.50
2019-04-28T18:48:43.851Z,12.40
2019-04-28T18:51:10.638Z,12.30
2019-04-28T18:53:37.572Z,12.30
2019-04-28T18:56:04.420Z,12.30
2019-04-28T18:58:31.183Z,12.30
2019-04-28T19:01:12.075Z,12.20
2019-04-28T19:03:38.861Z,12.10
2019-04-28T19:06:05.592Z,12.10
2019-04-28T19:08:47.859Z,12.00
2019-04-28T19:11:04.701Z,12.00
2019-04-28T19:13:48.081Z,11.90
2019-04-28T19:16:19.384Z,11.80
2019-04-28T19:18:57.077Z,11.80
2019-04-28T19:21:23.822Z,11.80
2019-04-28T19:23:50.716Z,11.70
2019-04-28T19:26:17.954Z,11.70
2019-04-28T19:28:45.803Z,11.70
2019-04-28T19:31:12.730Z,11.70
2019-04-28T19:33:39.576Z,11.70
2019-04-28T19:36:06.536Z,11.70
2019-04-28T19:38:33.459Z,11.60
2019-04-28T19:41:00.233Z,11.60
2019-04-28T19:43:26.994Z,11.60
2019-04-28T19:45:55.678Z,11.60
2019-04-28T19:48:22.495Z,11.60
2019-04-28T19:50:49.287Z,11.60
2019-04-28T19:53:16.344Z,11.60
2019-04-28T19:55:50.569Z,11.70
2019-04-28T19:58:21.792Z,11.70
2019-04-28T20:00:53.231Z,11.60
2019-04-28T20:03:20.056Z,11.60
2019-04-28T20:05:46.887Z,11.60
2019-04-28T20:08:13.754Z,11.50
2019-04-28T20:10:40.514Z,11.50
2019-04-28T20:13:07.374Z,11.50
2019-04-28T20:15:34.069Z,11.50
2019-04-28T20:18:00.812Z,11.60
2019-04-28T20:20:28.013Z,11.50
2019-04-28T20:22:54.867Z,11.50
2019-04-28T20:25:21.654Z,11.50
2019-04-28T20:27:48.764Z,11.50
2019-04-28T20:30:15.693Z,11.50
2019-04-28T20:32:44.363Z,11.50
2019-04-28T20:35:11.989Z,11.50
2019-04-28T20:37:55.562Z,11.40
2019-04-28T20:40:24.064Z,11.40
2019-04-28T20:42:52.888Z,11.40
2019-04-28T20:45:19.959Z,11.40
2019-04-28T20:47:47.148Z,11.30
2019-04-28T20:50:14.362Z,11.30
2019-04-28T20:52:41.367Z,11.30
2019-04-28T20:55:08.163Z,11.20
2019-04-28T20:57:34.908Z,11.10
2019-04-28T21:00:01.928Z,11.10
2019-04-28T21:02:30.510Z,11.10
2019-04-28T21:04:58.508Z,11.10
2019-04-28T21:07:29.932Z,11.00
2019-04-28T21:09:56.672Z,11.00
2019-04-28T21:12:23.715Z,11.00
2019-04-28T21:14:51.019Z,11.00
2019-04-28T21:17:17.950Z,10.90
2019-04-28T21:19:44.767Z,10.90
2019-04-28T21:22:11.517Z,10.90
2019-04-28T21:24:38.690Z,10.90
2019-04-28T21:27:05.456Z,10.80
2019-04-28T21:29:32.429Z,10.80
2019-04-28T21:31:59.388Z,10.80
2019-04-28T21:34:26.137Z,10.70
2019-04-28T21:36:52.786Z,10.60
2019-04-28T21:39:20.007Z,10.50
2019-04-28T21:41:46.749Z,10.60
2019-04-28T21:44:30.554Z,10.40
2019-04-28T21:47:14.375Z,10.40
2019-04-28T21:49:42.765Z,10.40
2019-04-28T21:52:10.358Z,10.30
2019-04-28T21:54:37.312Z,10.30
2019-04-28T21:57:04.044Z,10.30
2019-04-28T21:59:30.697Z,10.20
2019-04-28T22:01:57.662Z,10.20
2019-04-28T22:04:25.885Z,10.10
2019-04-28T22:06:53.392Z,10.20
2019-04-28T22:09:20.444Z,10.10
2019-04-28T22:11:47.219Z,10.10
2019-04-28T22:14:14.061Z,10.10
2019-04-28T22:16:40.796Z,10.00
2019-04-28T22:19:07.461Z,10.10
2019-04-28T22:21:34.128Z,10.00
2019-04-28T22:24:11.522Z,9.90
2019-04-28T22:26:42.071Z,9.90
2019-04-28T22:29:08.749Z,9.80
2019-04-28T22:31:35.410Z,9.70
2019-04-28T22:34:03.016Z,9.80
2019-04-28T22:36:29.737Z,9.60
2019-04-28T22:38:56.556Z,9.60
2019-04-28T22:41:23.410Z,9.60
2019-04-28T22:43:50.181Z,9.60
2019-04-28T22:46:16.920Z,9.60
2019-04-28T22:48:43.895Z,9.50
2019-04-28T22:51:10.763Z,9.50
2019-04-28T22:53:37.647Z,9.50
2019-04-28T22:56:24.706Z,9.50
2019-04-28T22:59:02.632Z,9.50
2019-04-28T23:01:31.111Z,9.50
2019-04-28T23:04:02.314Z,9.50
2019-04-28T23:06:29.174Z,9.40
2019-04-28T23:08:56.005Z,9.50
2019-04-28T23:11:22.768Z,9.40
2019-04-28T23:13:49.428Z,9.40
2019-04-28T23:16:16.384Z,9.30
2019-04-28T23:18:43.274Z,9.30
2019-04-28T23:21:12.219Z,9.30
2019-04-28T23:23:38.967Z,9.30
2019-04-28T23:26:05.816Z,9.30
2019-04-28T23:28:32.576Z,9.30
2019-04-28T23:30:59.441Z,9.30
2019-04-28T23:33:26.231Z,9.30
2019-04-28T23:35:52.974Z,9.30
2019-04-28T23:38:19.640Z,9.20
2019-04-28T23:40:48.467Z,9.20
2019-04-28T23:43:19.830Z,9.20
2019-04-28T23:45:46.666Z,9.20
2019-04-28T23:48:13.338Z,9.20
2019-04-28T23:50:51.101Z,9.20
2019-04-28T23:53:22.759Z,9.20
2019-04-28T23:55:51.435Z,9.10
2019-04-28T23:58:18.805Z,9.10
